Time;durP1;ratioP1;P1;durP2;ratioP2;P2;SDS_P1;SDS_P2;PMS_P1;PMS_P2;Temp;Humidity;BMP_temperature;BMP_pressure;BME280_temperature;BME280_humidity;BME280_pressure;Samples;Min_cycle;Max_cycle;Signal;HPM_P1;HPM_P2
2022/11/05 00:10:02;;;;;;;21.55;15.23;;;;;;;7.08;100.00;101408.69;5053014;28;20067;-61
2022/11/05 00:17:55;;;;;;;22.40;14.38;;;;;;;6.89;100.00;101419.31;5052597;28;20399;-62
2022/11/05 00:20:21;;;;;;;21.10;13.70;;;;;;;6.82;100.00;101417.66;5052026;28;20025;-61
2022/11/05 00:25:30;;;;;;;21.25;13.75;;;;;;;6.73;100.00;101416.50;5048487;28;20036;-61
2022/11/05 00:28:00;;;;;;;21.15;14.48;;;;;;;6.65;100.00;101420.56;5052514;28;20044;-62
2022/11/05 00:30:27;;;;;;;21.52;14.57;;;;;;;6.65;100.00;101415.06;5052480;28;20128;-62
2022/11/05 00:32:52;;;;;;;22.08;14.60;;;;;;;6.61;100.00;101424.97;5052014;28;20454;-62
2022/11/05 00:35:20;;;;;;;22.67;14.32;;;;;;;6.57;100.00;101423.81;5051566;28;20159;-63
2022/11/05 00:37:46;;;;;;;22.98;15.70;;;;;;;6.55;100.00;101426.00;5051693;28;20029;-61
2022/11/05 00:40:12;;;;;;;23.92;16.10;;;;;;;6.53;100.00;101430.91;5051285;28;20036;-62
2022/11/05 00:45:27;;;;;;;21.95;14.68;;;;;;;6.50;100.00;101436.97;5051934;28;20408;-62
2022/11/05 00:50:36;;;;;;;22.13;15.25;;;;;;;6.40;100.00;101446.78;5051692;28;20174;-63
2022/11/05 00:53:02;;;;;;;21.13;14.57;;;;;;;6.37;100.00;101449.25;5051539;28;20416;-63
2022/11/05 00:55:39;;;;;;;21.35;14.98;;;;;;;6.34;100.00;101433.28;5051322;28;20041;-61
2022/11/05 00:58:26;;;;;;;23.05;15.00;;;;;;;6.29;100.00;101442.31;5051327;28;20033;-62
2022/11/05 01:00:57;;;;;;;22.98;15.18;;;;;;;6.22;100.00;101439.78;5051452;28;20039;-63
2022/11/05 01:03:25;;;;;;;20.65;15.00;;;;;;;6.08;100.00;101422.09;5051487;28;20033;-62
2022/11/05 01:05:53;;;;;;;22.98;15.70;;;;;;;6.16;100.00;101445.47;5051023;28;20029;-62
2022/11/05 01:08:20;;;;;;;22.50;15.30;;;;;;;6.12;100.00;101455.34;5051289;28;20111;-62
2022/11/05 01:10:49;;;;;;;21.52;15.43;;;;;;;6.03;100.00;101438.50;5051011;28;20033;-62
2022/11/05 01:13:26;;;;;;;21.00;15.35;;;;;;;6.03;100.00;101457.72;5051177;28;20135;-63
2022/11/05 01:15:52;;;;;;;22.67;15.52;;;;;;;6.01;100.00;101463.50;5050859;28;20107;-62
2022/11/05 01:18:19;;;;;;;22.73;14.98;;;;;;;5.99;100.00;101467.56;5050775;28;20127;-62
2022/11/05 01:20:44;;;;;;;21.45;15.55;;;;;;;5.97;100.00;101475.22;5047404;28;20032;-62
2022/11/05 01:23:10;;;;;;;23.83;15.18;;;;;;;5.90;100.00;101473.50;5049392;28;20025;-64
2022/11/05 01:25:35;;;;;;;23.13;16.00;;;;;;;5.87;100.00;101479.53;5050731;28;20086;-63
2022/11/05 01:28:02;;;;;;;22.67;15.65;;;;;;;5.85;100.00;101486.38;5050709;28;20476;-64
2022/11/05 01:30:30;;;;;;;22.92;15.80;;;;;;;5.75;100.00;101476.09;5050524;28;20429;-63
2022/11/05 01:32:56;;;;;;;22.98;15.63;;;;;;;5.82;100.00;101486.88;5050291;28;20033;-63
2022/11/05 01:35:21;;;;;;;21.92;16.33;;;;;;;5.80;100.00;101494.53;5050852;28;20033;-63
2022/11/05 01:37:47;;;;;;;22.50;15.60;;;;;;;5.78;100.00;101495.63;5050722;28;20427;-63
2022/11/05 01:40:16;;;;;;;22.88;15.93;;;;;;;5.76;100.00;101505.22;5050555;28;20072;-63
2022/11/05 01:42:42;;;;;;;22.20;16.20;;;;;;;5.73;100.00;101494.75;5050678;28;20439;-64
2022/11/05 01:45:21;;;;;;;24.88;17.02;;;;;;;5.72;100.00;101499.41;5050623;28;20029;-63
2022/11/05 01:47:55;;;;;;;25.40;16.60;;;;;;;5.68;100.00;101501.00;5050568;28;20029;-63
2022/11/05 01:50:57;;;;;;;25.83;18.00;;;;;;;5.62;100.00;101502.84;5050590;28;20071;-63
2022/11/05 01:53:32;;;;;;;23.63;16.52;;;;;;;5.56;100.00;101503.06;5008401;28;20563;-63
2022/11/05 01:56:07;;;;;;;22.33;16.10;;;;;;;5.44;100.00;101500.44;5044362;28;20106;-63
2022/11/05 01:58:38;;;;;;;22.45;15.88;;;;;;;5.44;100.00;101495.78;5050287;28;20032;-63
2022/11/05 02:01:03;;;;;;;24.80;16.17;;;;;;;5.43;100.00;101494.13;5050423;28;20109;-64
2022/11/05 02:03:29;;;;;;;23.50;16.40;;;;;;;5.40;100.00;101488.34;5050337;28;20021;-64
2022/11/05 02:05:57;;;;;;;22.52;15.90;;;;;;;5.39;100.00;101492.97;5050278;28;20052;-62
2022/11/05 02:08:39;;;;;;;23.23;16.20;;;;;;;5.42;100.00;101484.25;5050303;28;20029;-63
2022/11/05 02:11:04;;;;;;;24.63;15.93;;;;;;;5.40;100.00;101483.66;5050155;28;20476;-62
2022/11/05 02:13:30;;;;;;;22.25;15.85;;;;;;;5.37;100.00;101483.34;5050077;28;20052;-62
2022/11/05 02:16:20;;;;;;;22.70;15.88;;;;;;;5.34;100.00;101472.91;5046332;28;20039;-62
2022/11/05 02:18:58;;;;;;;23.40;16.00;;;;;;;5.28;100.00;101483.78;5049982;28;20575;-62
2022/11/05 02:22:01;;;;;;;20.77;15.25;;;;;;;5.26;100.00;101482.41;5049928;28;20052;-62
2022/11/05 02:24:40;;;;;;;22.05;16.02;;;;;;;5.17;100.00;101475.69;5049956;28;20021;-62
2022/11/05 02:27:29;;;;;;;22.08;15.07;;;;;;;5.20;100.00;101483.38;5049852;28;20139;-62
2022/11/05 02:30:13;;;;;;;22.25;15.75;;;;;;;5.16;100.00;101488.56;5049857;28;20476;-62
2022/11/05 02:33:24;;;;;;;22.52;15.52;;;;;;;5.12;100.00;101482.75;5050006;28;20112;-63
2022/11/05 02:36:08;;;;;;;23.75;16.42;;;;;;;5.11;100.00;101483.03;5047498;28;20182;-63
2022/11/05 02:38:41;;;;;;;22.95;15.90;;;;;;;5.05;100.00;101482.13;5049580;28;20360;-63
2022/11/05 02:41:26;;;;;;;24.50;16.20;;;;;;;5.03;100.00;101478.78;5049625;28;20032;-62
2022/11/05 02:44:12;;;;;;;22.65;15.27;;;;;;;4.98;100.00;101476.00;5049254;28;20464;-63
2022/11/05 02:46:55;;;;;;;21.92;15.85;;;;;;;4.94;100.00;101472.09;5048863;28;20061;-63
2022/11/05 02:49:33;;;;;;;23.75;16.25;;;;;;;4.83;100.00;101465.63;5049386;28;20033;-62
2022/11/05 02:52:06;;;;;;;23.25;15.93;;;;;;;4.86;100.00;101480.75;5049555;28;20068;-63
2022/11/05 02:54:38;;;;;;;22.92;15.60;;;;;;;4.81;100.00;101476.88;5049485;28;20040;-63
2022/11/05 02:57:04;;;;;;;23.35;14.88;;;;;;;4.77;100.00;101478.44;5049730;28;20032;-62
2022/11/05 02:59:29;;;;;;;20.33;14.98;;;;;;;4.76;100.00;101474.03;5031203;28;20328;-63
2022/11/05 03:01:56;;;;;;;22.67;15.02;;;;;;;4.75;100.00;101479.78;5049160;28;20064;-63
2022/11/05 03:04:23;;;;;;;22.05;15.80;;;;;;;4.75;100.00;101472.38;5049292;28;20120;-61
2022/11/05 03:07:17;;;;;;;22.23;15.73;;;;;;;4.69;100.00;101474.19;5049262;28;20104;-62
2022/11/05 03:09:54;;;;;;;24.83;15.38;;;;;;;4.72;100.00;101469.31;5049133;28;20504;-62
2022/11/05 03:12:45;;;;;;;23.52;15.73;;;;;;;4.67;100.00;101467.31;5049214;28;20147;-63
2022/11/05 03:15:29;;;;;;;22.30;15.10;;;;;;;4.63;100.00;101474.41;5049365;28;20143;-63
2022/11/05 03:18:04;;;;;;;23.02;15.73;;;;;;;4.60;100.00;101475.69;5044846;28;20380;-62
2022/11/05 03:20:39;;;;;;;23.35;15.80;;;;;;;4.64;100.00;101476.03;5049085;28;20072;-62
2022/11/05 03:23:13;;;;;;;24.48;15.85;;;;;;;4.63;100.00;101472.47;5049350;28;20054;-62
2022/11/05 03:25:55;;;;;;;22.95;15.77;;;;;;;4.61;100.00;101473.81;5048993;28;20025;-62
2022/11/05 03:28:23;;;;;;;24.50;15.88;;;;;;;4.59;100.00;101478.69;5048959;28;20442;-62
2022/11/05 03:30:50;;;;;;;22.48;15.32;;;;;;;4.60;100.00;101481.19;5048898;28;20028;-62
2022/11/05 03:33:24;;;;;;;23.25;16.25;;;;;;;4.53;100.00;101473.13;5049239;28;20029;-62
2022/11/05 03:35:54;;;;;;;21.77;16.20;;;;;;;4.49;100.00;101468.41;5031575;28;20125;-62
2022/11/05 03:38:25;;;;;;;23.67;15.82;;;;;;;4.54;100.00;101487.69;5049194;28;20075;-61
2022/11/05 03:40:53;;;;;;;22.67;15.98;;;;;;;4.51;100.00;101491.75;5049064;28;20055;-62
2022/11/05 03:43:23;;;;;;;24.17;16.83;;;;;;;4.46;100.00;101488.91;5049027;28;20408;-63
2022/11/05 03:46:09;;;;;;;22.33;15.77;;;;;;;4.41;100.00;101485.25;5049357;28;20033;-62
2022/11/05 03:48:39;;;;;;;23.80;16.15;;;;;;;4.35;100.00;101489.81;5049306;28;20338;-63
2022/11/05 03:51:22;;;;;;;23.10;16.42;;;;;;;4.27;100.00;101488.34;5049158;28;20033;-63
2022/11/05 03:53:52;;;;;;;22.65;16.45;;;;;;;4.20;100.00;101480.28;5049178;28;20032;-62
2022/11/05 03:56:33;;;;;;;24.90;16.80;;;;;;;4.16;100.00;101486.50;5052838;28;20033;-63
2022/11/05 03:59:00;;;;;;;24.17;15.77;;;;;;;4.13;100.00;101487.81;5052640;28;20032;-62
2022/11/05 04:01:26;;;;;;;25.52;16.27;;;;;;;4.11;100.00;101489.16;5052588;28;20556;-62
2022/11/05 04:03:52;;;;;;;24.17;16.90;;;;;;;4.06;100.00;101489.91;5052529;28;20433;-62
2022/11/05 04:14:45;;;;;;;24.08;17.05;;;;;;;4.03;100.00;101498.59;5052427;28;20048;-61
2022/11/05 04:17:11;;;;;;;26.77;17.88;;;;;;;4.05;100.00;101497.25;5047276;28;20021;-61
2022/11/05 04:25:16;;;;;;;25.73;17.98;;;;;;;3.95;100.00;101507.22;5052228;28;20110;-62
2022/11/05 04:27:42;;;;;;;24.85;18.15;;;;;;;3.93;100.00;101506.63;5052138;28;20437;-62
2022/11/05 04:30:20;;;;;;;25.50;18.23;;;;;;;3.89;100.00;101509.00;5051984;28;20033;-61
2022/11/05 04:32:59;;;;;;;24.60;17.65;;;;;;;3.77;100.00;101500.00;5051968;28;20027;-62
2022/11/05 04:35:26;;;;;;;25.90;18.02;;;;;;;3.82;100.00;101516.56;5033929;28;20121;-62
2022/11/05 04:37:52;;;;;;;24.38;17.90;;;;;;;3.81;100.00;101515.69;5051836;28;20537;-62
2022/11/05 04:40:17;;;;;;;24.20;18.30;;;;;;;3.79;100.00;101506.91;5051870;28;20112;-61
2022/11/05 04:42:42;;;;;;;25.70;18.63;;;;;;;3.79;100.00;101512.38;5051770;28;20025;-62
2022/11/05 04:45:08;;;;;;;24.85;18.80;;;;;;;3.79;100.00;101519.75;5033623;28;20025;-62
2022/11/05 04:47:33;;;;;;;26.52;19.10;;;;;;;3.75;100.00;101516.69;5051661;28;20611;-62
2022/11/05 04:49:58;;;;;;;26.33;19.63;;;;;;;3.57;100.00;101495.81;5051746;28;20397;-62
2022/11/05 04:52:24;;;;;;;27.35;19.92;;;;;;;3.71;100.00;101519.09;5051429;28;20315;-61
2022/11/05 04:54:49;;;;;;;26.58;19.58;;;;;;;3.67;100.00;101522.56;5051543;28;20032;-61
2022/11/05 04:57:14;;;;;;;28.92;20.17;;;;;;;3.65;100.00;101521.97;5051593;28;20407;-61
2022/11/05 04:59:40;;;;;;;27.45;19.70;;;;;;;3.62;100.00;101525.16;5051411;28;20416;-61
2022/11/05 05:02:05;;;;;;;27.42;19.77;;;;;;;3.59;100.00;101521.84;5051457;28;20033;-61
2022/11/05 05:04:30;;;;;;;28.98;20.67;;;;;;;3.56;100.00;101522.34;5051577;28;20036;-61
2022/11/05 05:06:56;;;;;;;25.77;20.10;;;;;;;3.56;100.00;101530.56;5032248;28;20465;-61
2022/11/05 05:09:21;;;;;;;29.50;21.75;;;;;;;3.55;100.00;101530.78;5051496;28;20025;-61
2022/11/05 05:11:46;;;;;;;29.27;22.35;;;;;;;3.53;100.00;101536.50;5051523;28;20021;-62
2022/11/05 05:14:11;;;;;;;28.33;20.92;;;;;;;3.50;100.00;101536.16;5051276;28;20387;-62
2022/11/05 05:16:37;;;;;;;28.80;20.52;;;;;;;3.51;100.00;101543.28;5047291;28;20028;-61
2022/11/05 05:19:02;;;;;;;28.63;21.42;;;;;;;3.47;100.00;101548.41;5032841;28;20055;-61
2022/11/05 05:21:38;;;;;;;26.85;20.00;;;;;;;3.45;100.00;101542.34;5033410;28;20052;-62
2022/11/05 05:24:09;;;;;;;28.15;20.58;;;;;;;3.36;100.00;101536.41;5051236;28;20032;-62
2022/11/05 05:26:36;;;;;;;31.67;21.50;;;;;;;3.43;100.00;101541.75;5050885;28;20057;-62
2022/11/05 05:29:02;;;;;;;26.90;21.10;;;;;;;3.41;100.00;101550.22;5050820;28;20033;-61
2022/11/05 05:31:27;;;;;;;30.50;21.77;;;;;;;3.40;100.00;101543.06;5051202;28;20035;-63
2022/11/05 05:33:54;;;;;;;29.02;21.65;;;;;;;3.40;100.00;101544.97;5050825;28;20024;-61
2022/11/05 05:36:20;;;;;;;29.27;22.50;;;;;;;3.36;100.00;101554.72;5050507;28;20033;-61
2022/11/05 05:38:45;;;;;;;32.45;24.42;;;;;;;3.36;100.00;101549.25;5050530;28;20402;-60
2022/11/05 05:41:10;;;;;;;29.33;21.70;;;;;;;3.35;100.00;101545.72;5050696;28;20536;-61
2022/11/05 05:43:36;;;;;;;31.35;22.23;;;;;;;3.33;100.00;101545.09;5050410;28;20017;-61
2022/11/05 05:46:06;;;;;;;28.70;21.30;;;;;;;3.34;100.00;101554.13;5050435;28;20388;-63
2022/11/05 05:48:32;;;;;;;30.13;22.02;;;;;;;3.36;100.00;101544.59;5050570;28;20040;-63
2022/11/05 05:51:07;;;;;;;28.55;21.92;;;;;;;3.37;100.00;101548.19;5050472;28;20033;-63
2022/11/05 05:53:33;;;;;;;30.35;22.13;;;;;;;3.34;100.00;101544.03;5050300;28;20491;-63
2022/11/05 05:55:58;;;;;;;29.77;22.23;;;;;;;3.33;100.00;101547.84;5050286;28;20029;-62
2022/11/05 05:58:28;;;;;;;28.75;20.50;;;;;;;3.33;100.00;101550.59;5050240;28;20029;-62
2022/11/05 06:00:54;;;;;;;29.52;21.55;;;;;;;3.33;100.00;101552.47;5050132;28;20056;-62
2022/11/05 06:03:19;;;;;;;27.55;21.63;;;;;;;3.32;100.00;101551.66;5050301;28;20028;-62
2022/11/05 06:05:45;;;;;;;29.50;21.98;;;;;;;3.31;100.00;101552.72;5050041;28;20105;-62
2022/11/05 06:08:10;;;;;;;31.27;22.27;;;;;;;3.31;100.00;101551.91;5049958;28;20033;-61
2022/11/05 06:10:35;;;;;;;31.13;21.88;;;;;;;3.31;100.00;101558.19;5049868;28;20047;-61
2022/11/05 06:13:01;;;;;;;32.13;22.05;;;;;;;3.30;100.00;101562.00;5049763;28;20036;-61
2022/11/05 06:15:26;;;;;;;29.08;21.48;;;;;;;3.31;100.00;101563.66;5049526;28;20121;-61
2022/11/05 06:17:52;;;;;;;28.73;21.75;;;;;;;3.33;100.00;101556.06;5045100;28;20057;-61
2022/11/05 06:20:17;;;;;;;29.00;21.65;;;;;;;3.31;100.00;101566.38;5049641;28;20059;-62
2022/11/05 06:22:43;;;;;;;32.83;23.15;;;;;;;3.27;100.00;101551.53;5050025;28;20017;-63
2022/11/05 06:25:08;;;;;;;30.65;22.05;;;;;;;3.32;100.00;101564.47;5031763;28;20044;-61
2022/11/05 06:27:35;;;;;;;29.45;21.33;;;;;;;3.29;100.00;101565.78;5049706;28;20360;-61
2022/11/05 06:30:01;;;;;;;29.35;22.35;;;;;;;3.26;100.00;101569.84;5049758;28;20055;-62
2022/11/05 06:32:26;;;;;;;30.05;22.75;;;;;;;3.26;100.00;101564.38;5049798;28;20468;-61
2022/11/05 06:34:51;;;;;;;31.08;22.15;;;;;;;3.26;100.00;101569.00;5049843;28;20108;-61
2022/11/05 06:37:17;;;;;;;30.38;22.45;;;;;;;3.21;100.00;101566.97;5049806;28;20025;-62
2022/11/05 06:39:42;;;;;;;31.40;22.63;;;;;;;3.23;100.00;101574.97;5049388;28;20056;-60
2022/11/05 06:42:07;;;;;;;30.05;22.77;;;;;;;3.21;100.00;101577.91;5049372;28;20032;-61
2022/11/05 06:44:32;;;;;;;30.27;22.75;;;;;;;3.20;100.00;101576.28;5049789;28;20108;-62
2022/11/05 06:46:59;;;;;;;31.65;23.48;;;;;;;3.20;100.00;101576.28;5031666;28;20546;-62
2022/11/05 06:49:24;;;;;;;32.25;23.30;;;;;;;3.17;100.00;101576.75;5049785;28;20070;-61
2022/11/05 06:51:50;;;;;;;30.05;22.10;;;;;;;3.18;100.00;101578.41;5047693;28;20473;-62
2022/11/05 06:54:16;;;;;;;31.17;22.17;;;;;;;3.20;100.00;101580.91;5011726;28;20124;-62
2022/11/05 06:56:41;;;;;;;31.50;22.85;;;;;;;3.19;100.00;101571.03;5029390;28;20365;-61
2022/11/05 06:59:07;;;;;;;33.15;21.70;;;;;;;3.22;100.00;101578.75;5029446;28;20026;-62
2022/11/05 07:01:33;;;;;;;32.25;24.45;;;;;;;3.23;100.00;101580.44;5029474;28;20026;-61
2022/11/05 07:03:58;;;;;;;30.65;22.42;;;;;;;3.24;100.00;101593.84;5023104;28;20479;-62
2022/11/05 07:06:23;;;;;;;32.20;22.48;;;;;;;3.25;100.00;101581.03;5018850;28;20397;-61
2022/11/05 07:08:49;;;;;;;31.42;22.08;;;;;;;3.27;100.00;101590.66;5019258;28;20056;-62
2022/11/05 07:11:14;;;;;;;29.58;21.15;;;;;;;3.30;100.00;101594.00;4999060;28;20539;-63
2022/11/05 07:13:39;;;;;;;30.27;21.95;;;;;;;3.31;100.00;101592.91;5019670;28;20022;-62
2022/11/05 07:16:05;;;;;;;28.98;21.70;;;;;;;3.28;100.00;101584.13;5018752;28;20032;-62
2022/11/05 07:18:30;;;;;;;33.90;20.98;;;;;;;3.33;100.00;101590.75;5018824;28;20561;-61
2022/11/05 07:20:57;;;;;;;28.75;20.73;;;;;;;3.35;100.00;101594.09;5020243;28;20029;-61
2022/11/05 07:23:22;;;;;;;29.13;21.80;;;;;;;3.37;100.00;101600.97;5038720;28;20087;-62
2022/11/05 07:25:48;;;;;;;28.65;21.60;;;;;;;3.40;100.00;101600.50;5048914;28;20105;-61
2022/11/05 07:28:13;;;;;;;34.20;22.17;;;;;;;3.45;100.00;101608.00;5048976;28;20393;-61
2022/11/05 07:30:38;;;;;;;29.05;21.35;;;;;;;3.50;100.00;101605.38;5051838;28;20028;-61
2022/11/05 07:33:04;;;;;;;28.30;20.45;;;;;;;3.55;100.00;101608.22;5037367;28;20033;-61
2022/11/05 07:35:29;;;;;;;28.27;20.60;;;;;;;3.57;100.00;101608.81;5033342;28;20155;-61
2022/11/05 07:37:54;;;;;;;28.45;20.90;;;;;;;3.61;100.00;101613.78;5033510;28;20360;-61
2022/11/05 07:40:22;;;;;;;30.90;20.73;;;;;;;3.65;100.00;101618.53;5033352;28;20032;-61
2022/11/05 07:42:53;;;;;;;30.88;21.63;;;;;;;3.70;100.00;101620.56;5033481;28;20056;-62
2022/11/05 07:45:19;;;;;;;30.17;20.63;;;;;;;3.77;100.00;101624.03;5030287;28;20029;-62
2022/11/05 07:47:49;;;;;;;28.67;20.73;;;;;;;3.81;100.00;101627.09;5033363;28;20041;-61
2022/11/05 07:50:16;;;;;;;29.45;20.05;;;;;;;3.78;100.00;101616.63;5033360;28;20033;-62
2022/11/05 07:52:42;;;;;;;29.73;19.95;;;;;;;3.89;100.00;101622.06;5033121;28;20029;-61
2022/11/05 07:55:09;;;;;;;31.30;20.60;;;;;;;3.96;100.00;101618.38;5033248;28;20469;-61
2022/11/05 07:57:41;;;;;;;29.15;19.60;;;;;;;4.03;100.00;101621.81;5033322;28;20029;-61
2022/11/05 08:00:07;;;;;;;28.65;19.90;;;;;;;4.08;100.00;101627.38;5033526;28;20125;-62
2022/11/05 08:02:33;;;;;;;29.17;19.95;;;;;;;4.16;100.00;101628.91;5033499;28;20135;-62
2022/11/05 08:04:58;;;;;;;28.33;19.60;;;;;;;4.23;100.00;101624.09;5033515;28;20037;-62
2022/11/05 08:07:23;;;;;;;29.02;18.98;;;;;;;4.29;100.00;101627.78;5029391;28;20017;-60
2022/11/05 08:09:48;;;;;;;28.88;19.25;;;;;;;4.34;100.00;101625.97;5033258;28;20030;-62
2022/11/05 08:12:14;;;;;;;29.45;19.60;;;;;;;4.42;100.00;101626.66;5033487;28;20115;-62
2022/11/05 08:14:39;;;;;;;30.23;20.52;;;;;;;4.47;100.00;101624.84;5033266;28;20025;-62
2022/11/05 08:17:04;;;;;;;26.52;19.25;;;;;;;4.57;100.00;101631.56;5033331;28;20033;-62
2022/11/05 08:19:29;;;;;;;28.38;19.45;;;;;;;4.65;100.00;101625.69;5032751;28;20049;-63
2022/11/05 08:21:55;;;;;;;27.88;20.27;;;;;;;4.71;100.00;101624.72;5032480;28;20087;-63
2022/11/05 08:24:20;;;;;;;27.38;19.33;;;;;;;4.78;100.00;101621.78;5032975;28;20040;-62
2022/11/05 08:26:45;;;;;;;27.08;18.50;;;;;;;4.84;100.00;101618.09;5033020;28;20025;-62
2022/11/05 08:29:10;;;;;;;29.35;19.08;;;;;;;4.89;100.00;101609.94;5032976;28;20039;-59
2022/11/05 08:31:36;;;;;;;30.45;19.42;;;;;;;4.95;100.00;101614.44;5032937;28;20476;-62
2022/11/05 08:34:01;;;;;;;27.08;18.85;;;;;;;5.04;100.00;101623.06;5032811;28;20097;-62
2022/11/05 08:36:26;;;;;;;26.80;18.60;;;;;;;5.13;100.00;101621.56;5032870;28;20021;-62
2022/11/05 08:38:52;;;;;;;28.42;18.55;;;;;;;5.20;100.00;101626.88;5032730;28;20117;-63
2022/11/05 08:41:17;;;;;;;26.88;18.52;;;;;;;5.23;100.00;101625.53;5014568;28;20068;-62
2022/11/05 08:43:42;;;;;;;27.13;18.80;;;;;;;5.28;100.00;101628.38;5042222;28;20446;-62
2022/11/05 08:46:07;;;;;;;28.35;18.60;;;;;;;5.34;100.00;101621.88;5052498;28;20116;-62
2022/11/05 08:48:33;;;;;;;27.10;17.70;;;;;;;5.42;100.00;101623.38;5052508;28;20132;-63
2022/11/05 08:51:00;;;;;;;28.27;17.50;;;;;;;5.49;100.00;101629.50;5052623;28;20032;-63
2022/11/05 08:53:25;;;;;;;28.90;18.52;;;;;;;5.57;100.00;101629.06;5052536;28;20021;-63
2022/11/05 08:55:50;;;;;;;27.65;17.63;;;;;;;5.64;100.00;101628.91;5052447;28;20039;-62
2022/11/05 08:58:17;;;;;;;26.25;17.55;;;;;;;5.71;100.00;101636.94;5052299;28;20109;-62
2022/11/05 09:00:44;;;;;;;25.98;17.40;;;;;;;5.77;100.00;101616.72;5052188;28;20033;-62
2022/11/05 09:03:10;;;;;;;27.17;17.52;;;;;;;5.88;100.00;101631.38;5048064;28;20036;-62
2022/11/05 09:05:38;;;;;;;26.35;17.55;;;;;;;5.89;100.00;101627.56;5051178;28;20035;-63
2022/11/05 09:08:04;;;;;;;27.30;18.88;;;;;;;5.99;100.00;101626.88;5051249;28;20025;-62
2022/11/05 09:10:30;;;;;;;26.65;17.50;;;;;;;6.09;100.00;101636.09;5050904;28;20063;-62
2022/11/05 09:12:55;;;;;;;27.23;17.83;;;;;;;6.16;100.00;101629.56;5050909;28;20481;-62
2022/11/05 09:15:22;;;;;;;27.60;18.45;;;;;;;6.21;100.00;101635.13;5033568;28;20098;-62
2022/11/05 09:17:47;;;;;;;29.13;18.90;;;;;;;6.25;100.00;101633.50;5007788;28;20128;-62
2022/11/05 09:20:12;;;;;;;27.55;18.20;;;;;;;6.32;100.00;101633.31;5039891;28;20048;-61
2022/11/05 09:22:38;;;;;;;27.02;17.67;;;;;;;6.36;100.00;101627.03;5050827;28;20052;-62
2022/11/05 09:25:03;;;;;;;25.80;17.42;;;;;;;6.43;100.00;101635.09;5034559;28;20463;-62
2022/11/05 09:27:29;;;;;;;24.27;17.88;;;;;;;6.49;100.00;101630.47;5013138;28;20039;-63
2022/11/05 09:29:54;;;;;;;28.10;18.15;;;;;;;6.57;100.00;101632.75;5031049;28;20499;-64
2022/11/05 09:32:20;;;;;;;25.00;16.27;;;;;;;6.64;100.00;101638.88;5031143;28;20036;-62
2022/11/05 09:34:47;;;;;;;24.27;16.20;;;;;;;6.74;100.00;101631.81;5030975;28;20029;-62
2022/11/05 09:37:13;;;;;;;28.88;17.75;;;;;;;6.81;100.00;101630.50;5030954;28;20030;-62
2022/11/05 09:39:38;;;;;;;25.98;17.13;;;;;;;6.92;100.00;101634.16;5031120;28;20034;-62
2022/11/05 09:42:07;;;;;;;24.05;16.33;;;;;;;6.93;100.00;101630.31;5031179;28;20134;-62
2022/11/05 09:44:40;;;;;;;25.35;17.48;;;;;;;6.97;100.00;101639.72;5031137;28;20055;-61
2022/11/05 09:47:11;;;;;;;24.90;17.00;;;;;;;7.02;100.00;101644.44;5031147;28;20407;-62
2022/11/05 09:49:41;;;;;;;23.92;16.80;;;;;;;7.03;100.00;101633.16;5012739;28;20025;-62
2022/11/05 09:52:13;;;;;;;26.50;16.63;;;;;;;7.17;100.00;101643.75;5029948;28;20029;-61
2022/11/05 09:54:39;;;;;;;24.15;16.15;;;;;;;7.25;100.00;101645.16;5030729;28;20030;-61
2022/11/05 09:57:10;;;;;;;24.55;16.08;;;;;;;7.27;100.00;101645.72;5030877;28;20070;-62
2022/11/05 09:59:47;;;;;;;25.15;15.90;;;;;;;7.42;100.00;101651.31;5029772;28;20029;-62
2022/11/05 10:02:19;;;;;;;24.98;16.60;;;;;;;7.51;100.00;101645.34;5028894;28;20120;-62
2022/11/05 10:04:48;;;;;;;24.65;17.42;;;;;;;7.66;100.00;101653.69;5018250;28;20529;-62
2022/11/05 10:07:18;;;;;;;25.20;16.15;;;;;;;7.71;100.00;101648.19;5050769;28;20091;-62
2022/11/05 10:09:50;;;;;;;24.38;15.43;;;;;;;7.92;100.00;101662.09;5050693;28;20044;-62
2022/11/05 10:12:25;;;;;;;22.83;14.30;;;;;;;8.03;100.00;101665.72;5050683;28;20029;-61
2022/11/05 10:15:42;;;;;;;23.40;14.05;;;;;;;8.10;100.00;101658.03;5050586;28;20073;-61
2022/11/05 10:18:18;;;;;;;23.00;14.18;;;;;;;8.12;100.00;101655.84;4972217;28;20077;-62
2022/11/05 10:20:44;;;;;;;23.40;14.48;;;;;;;8.16;100.00;101661.66;4989007;28;20044;-62
2022/11/05 10:23:09;;;;;;;23.90;14.95;;;;;;;8.26;100.00;101676.28;5015407;28;20115;-61
2022/11/05 10:25:39;;;;;;;23.80;14.38;;;;;;;8.26;100.00;101658.94;4999867;28;20044;-62
2022/11/05 10:28:06;;;;;;;22.65;14.55;;;;;;;8.43;100.00;101675.22;5030218;28;20401;-62
2022/11/05 10:30:31;;;;;;;23.63;15.13;;;;;;;8.52;100.00;101675.56;5029903;28;20047;-61
2022/11/05 10:33:01;;;;;;;22.67;15.10;;;;;;;8.58;100.00;101680.00;5030184;28;20145;-61
2022/11/05 10:35:29;;;;;;;24.83;16.05;;;;;;;8.60;99.81;101669.53;5029927;28;20038;-61
2022/11/05 10:37:55;;;;;;;23.05;15.40;;;;;;;8.71;99.98;101678.63;5029661;28;20033;-62
2022/11/05 10:40:59;;;;;;;24.42;17.02;;;;;;;8.83;100.00;101673.69;5029708;28;20453;-62
2022/11/05 10:43:31;;;;;;;25.55;16.27;;;;;;;8.89;100.00;101672.59;5029879;28;20451;-61
2022/11/05 10:46:31;;;;;;;24.92;15.43;;;;;;;8.96;99.81;101663.22;5029969;28;20140;-61
2022/11/05 10:49:10;;;;;;;23.27;15.52;;;;;;;9.05;99.47;101673.44;5029778;28;20033;-62
2022/11/05 10:51:36;;;;;;;24.27;15.23;;;;;;;9.12;97.26;101677.84;5029979;28;20032;-62
2022/11/05 10:54:22;;;;;;;24.30;14.85;;;;;;;9.14;97.09;101661.84;5029572;28;20472;-62
2022/11/05 10:56:47;;;;;;;23.65;13.95;;;;;;;9.17;95.80;101678.69;5029844;28;20404;-62
2022/11/05 10:59:25;;;;;;;20.42;12.88;;;;;;;9.23;93.26;101673.97;5029749;28;20175;-61
2022/11/05 11:02:17;;;;;;;20.42;13.38;;;;;;;9.23;94.64;101679.50;5029559;28;20037;-61
2022/11/05 11:04:50;;;;;;;22.00;14.25;;;;;;;9.23;94.27;101673.97;5032668;28;20033;-61
2022/11/05 11:07:21;;;;;;;20.70;13.77;;;;;;;9.21;94.02;101666.00;5034063;28;20030;-61
2022/11/05 11:09:48;;;;;;;22.98;13.95;;;;;;;9.24;93.73;101659.06;5015952;28;20029;-62
2022/11/05 11:12:20;;;;;;;22.63;14.55;;;;;;;9.30;93.74;101668.19;5033705;28;20195;-62
2022/11/05 11:15:02;;;;;;;22.98;14.23;;;;;;;9.25;93.85;101660.72;5033605;28;20022;-61
2022/11/05 11:17:31;;;;;;;22.23;14.50;;;;;;;9.33;93.35;101673.97;5033965;28;20117;-61
2022/11/05 11:20:24;;;;;;;22.55;14.52;;;;;;;9.35;93.85;101674.53;5033430;28;20136;-62
2022/11/05 11:23:14;;;;;;;24.13;14.67;;;;;;;9.38;93.93;101670.38;5033559;28;20030;-62
2022/11/05 11:25:49;;;;;;;21.08;14.23;;;;;;;9.42;93.17;101654.94;5033573;28;20036;-62
2022/11/05 11:28:29;;;;;;;21.67;14.93;;;;;;;9.45;93.53;101659.88;5034005;28;20116;-63
2022/11/05 11:31:15;;;;;;;21.48;13.75;;;;;;;9.47;94.05;101659.63;5033487;28;20037;-61
2022/11/05 11:33:45;;;;;;;27.05;17.58;;;;;;;9.43;93.73;101651.06;5033195;28;20032;-62
2022/11/05 11:36:12;;;;;;;25.50;16.33;;;;;;;9.50;92.14;101659.88;5033407;28;20481;-62
2022/11/05 11:38:38;;;;;;;26.13;20.40;;;;;;;9.55;92.02;101666.50;5033374;28;20119;-62
2022/11/05 11:41:09;;;;;;;24.25;16.38;;;;;;;9.55;92.74;101659.03;5032926;28;20496;-63
2022/11/05 11:43:37;;;;;;;31.40;27.92;;;;;;;9.56;93.70;101643.28;5033195;28;20041;-62
2022/11/05 11:46:04;;;;;;;28.83;23.48;;;;;;;9.68;92.41;101654.88;5032965;28;20025;-61
2022/11/05 11:48:34;;;;;;;39.35;35.63;;;;;;;9.74;92.68;101658.44;5033165;28;20105;-61
2022/11/05 11:51:15;;;;;;;26.67;22.23;;;;;;;9.79;92.75;101656.50;5033052;28;20156;-61
2022/11/05 11:53:40;;;;;;;25.90;21.13;;;;;;;9.80;91.79;101658.16;5033085;28;20033;-62
2022/11/05 11:56:16;;;;;;;28.65;20.67;;;;;;;9.79;92.05;101652.91;5032946;28;20075;-61
2022/11/05 11:58:52;;;;;;;25.45;18.38;;;;;;;9.86;90.66;101658.97;5032735;28;20106;-61